sensor_id;sensor_type;location;lat;lon;timestamp;P1;durP1;ratioP1;P2;durP2;ratioP2
29574;SDS011;16507;51.046;6.406;2022-12-10T00:01:52;83.07;;;36.35;;
29574;SDS011;16507;51.046;6.406;2022-12-10T00:04:19;94.68;;;38.97;;
29574;SDS011;16507;51.046;6.406;2022-12-10T00:06:45;87.47;;;37.20;;
29574;SDS011;16507;51.046;6.406;2022-12-10T00:09:12;108.28;;;36.47;;
29574;SDS011;16507;51.046;6.406;2022-12-10T00:11:39;84.30;;;34.67;;
29574;SDS011;16507;51.046;6.406;2022-12-10T00:14:06;79.07;;;34.15;;
29574;SDS011;16507;51.046;6.406;2022-12-10T00:16:32;93.45;;;33.08;;
29574;SDS011;16507;51.046;6.406;2022-12-10T00:18:59;81.70;;;33.75;;
29574;SDS011;16507;51.046;6.406;2022-12-10T00:21:26;94.70;;;37.58;;
29574;SDS011;16507;51.046;6.406;2022-12-10T00:23:54;98.18;;;39.70;;
29574;SDS011;16507;51.046;6.406;2022-12-10T00:26:21;105.97;;;37.47;;
29574;SDS011;16507;51.046;6.406;2022-12-10T00:28:51;100.57;;;40.03;;
29574;SDS011;16507;51.046;6.406;2022-12-10T00:31:19;108.93;;;40.40;;
29574;SDS011;16507;51.046;6.406;2022-12-10T00:33:47;98.82;;;39.58;;
29574;SDS011;16507;51.046;6.406;2022-12-10T00:36:20;110.70;;;39.97;;
29574;SDS011;16507;51.046;6.406;2022-12-10T00:38:48;105.75;;;39.80;;
29574;SDS011;16507;51.046;6.406;2022-12-10T00:41:15;100.95;;;37.58;;
29574;SDS011;16507;51.046;6.406;2022-12-10T00:43:41;98.05;;;37.58;;
29574;SDS011;16507;51.046;6.406;2022-12-10T00:46:07;113.88;;;41.28;;
29574;SDS011;16507;51.046;6.406;2022-12-10T00:48:34;114.90;;;39.33;;
29574;SDS011;16507;51.046;6.406;2022-12-10T00:51:01;128.52;;;45.72;;
29574;SDS011;16507;51.046;6.406;2022-12-10T00:53:32;109.38;;;41.03;;
29574;SDS011;16507;51.046;6.406;2022-12-10T00:55:59;119.93;;;46.25;;
29574;SDS011;16507;51.046;6.406;2022-12-10T00:58:28;113.45;;;41.72;;
29574;SDS011;16507;51.046;6.406;2022-12-10T01:03:45;116.15;;;40.97;;
29574;SDS011;16507;51.046;6.406;2022-12-10T01:06:14;106.80;;;40.13;;
29574;SDS011;16507;51.046;6.406;2022-12-10T01:08:42;118.07;;;40.08;;
29574;SDS011;16507;51.046;6.406;2022-12-10T01:11:09;98.07;;;38.55;;
29574;SDS011;16507;51.046;6.406;2022-12-10T01:13:35;96.13;;;38.80;;
29574;SDS011;16507;51.046;6.406;2022-12-10T01:16:02;115.85;;;43.30;;
29574;SDS011;16507;51.046;6.406;2022-12-10T01:18:29;108.07;;;42.92;;
29574;SDS011;16507;51.046;6.406;2022-12-10T01:20:55;114.75;;;42.03;;
29574;SDS011;16507;51.046;6.406;2022-12-10T01:23:24;101.57;;;40.42;;
29574;SDS011;16507;51.046;6.406;2022-12-10T01:25:50;110.43;;;40.33;;
29574;SDS011;16507;51.046;6.406;2022-12-10T01:28:15;114.68;;;41.33;;
29574;SDS011;16507;51.046;6.406;2022-12-10T01:30:41;117.57;;;43.90;;
29574;SDS011;16507;51.046;6.406;2022-12-10T01:33:07;109.50;;;41.25;;
29574;SDS011;16507;51.046;6.406;2022-12-10T01:35:35;114.15;;;43.22;;
29574;SDS011;16507;51.046;6.406;2022-12-10T01:38:01;112.45;;;42.60;;
29574;SDS011;16507;51.046;6.406;2022-12-10T01:40:27;109.75;;;42.17;;
29574;SDS011;16507;51.046;6.406;2022-12-10T01:42:53;112.90;;;42.15;;
29574;SDS011;16507;51.046;6.406;2022-12-10T01:45:18;101.82;;;39.35;;
29574;SDS011;16507;51.046;6.406;2022-12-10T01:47:44;101.63;;;41.20;;
29574;SDS011;16507;51.046;6.406;2022-12-10T01:50:10;103.55;;;40.42;;
29574;SDS011;16507;51.046;6.406;2022-12-10T01:52:35;114.13;;;42.47;;
29574;SDS011;16507;51.046;6.406;2022-12-10T01:55:06;106.50;;;41.38;;
29574;SDS011;16507;51.046;6.406;2022-12-10T01:57:34;104.88;;;40.38;;
29574;SDS011;16507;51.046;6.406;2022-12-10T02:00:01;103.07;;;41.40;;
29574;SDS011;16507;51.046;6.406;2022-12-10T02:07:55;99.90;;;39.75;;
29574;SDS011;16507;51.046;6.406;2022-12-10T02:10:44;99.90;;;39.15;;
29574;SDS011;16507;51.046;6.406;2022-12-10T02:15:57;108.20;;;39.95;;
29574;SDS011;16507;51.046;6.406;2022-12-10T02:18:43;136.05;;;38.75;;
29574;SDS011;16507;51.046;6.406;2022-12-10T02:21:22;271.02;;;45.00;;
29574;SDS011;16507;51.046;6.406;2022-12-10T02:23:54;379.08;;;46.63;;
29574;SDS011;16507;51.046;6.406;2022-12-10T02:29:30;524.60;;;50.13;;
29574;SDS011;16507;51.046;6.406;2022-12-10T02:32:16;486.48;;;49.58;;
29574;SDS011;16507;51.046;6.406;2022-12-10T02:34:50;578.35;;;54.28;;
29574;SDS011;16507;51.046;6.406;2022-12-10T02:37:41;527.30;;;51.78;;
29574;SDS011;16507;51.046;6.406;2022-12-10T02:40:30;372.08;;;44.60;;
29574;SDS011;16507;51.046;6.406;2022-12-10T02:42:58;349.75;;;42.88;;
29574;SDS011;16507;51.046;6.406;2022-12-10T02:45:24;462.52;;;50.38;;
29574;SDS011;16507;51.046;6.406;2022-12-10T02:47:53;307.27;;;41.95;;
29574;SDS011;16507;51.046;6.406;2022-12-10T02:50:22;299.88;;;43.35;;
29574;SDS011;16507;51.046;6.406;2022-12-10T02:52:48;406.83;;;47.53;;
29574;SDS011;16507;51.046;6.406;2022-12-10T02:55:14;303.70;;;43.42;;
29574;SDS011;16507;51.046;6.406;2022-12-10T03:00:29;528.30;;;53.50;;
29574;SDS011;16507;51.046;6.406;2022-12-10T03:08:47;600.00;;;54.13;;
29574;SDS011;16507;51.046;6.406;2022-12-10T03:11:21;401.15;;;46.03;;
29574;SDS011;16507;51.046;6.406;2022-12-10T03:14:02;538.25;;;49.38;;
29574;SDS011;16507;51.046;6.406;2022-12-10T03:16:50;491.40;;;49.17;;
29574;SDS011;16507;51.046;6.406;2022-12-10T03:19:20;656.88;;;60.35;;
29574;SDS011;16507;51.046;6.406;2022-12-10T03:21:49;711.28;;;60.28;;
29574;SDS011;16507;51.046;6.406;2022-12-10T03:24:16;621.28;;;59.22;;
29574;SDS011;16507;51.046;6.406;2022-12-10T03:26:43;580.53;;;56.95;;
29574;SDS011;16507;51.046;6.406;2022-12-10T03:29:29;440.80;;;51.10;;
29574;SDS011;16507;51.046;6.406;2022-12-10T03:31:59;426.88;;;50.40;;
29574;SDS011;16507;51.046;6.406;2022-12-10T03:34:27;438.38;;;52.35;;
29574;SDS011;16507;51.046;6.406;2022-12-10T03:36:53;472.80;;;55.00;;
29574;SDS011;16507;51.046;6.406;2022-12-10T03:39:19;416.10;;;52.95;;
29574;SDS011;16507;51.046;6.406;2022-12-10T03:41:45;350.40;;;53.85;;
29574;SDS011;16507;51.046;6.406;2022-12-10T03:44:11;420.08;;;55.50;;
29574;SDS011;16507;51.046;6.406;2022-12-10T03:46:37;357.85;;;51.92;;
29574;SDS011;16507;51.046;6.406;2022-12-10T03:49:03;332.83;;;54.47;;
29574;SDS011;16507;51.046;6.406;2022-12-10T03:51:29;388.67;;;56.30;;
29574;SDS011;16507;51.046;6.406;2022-12-10T03:53:54;466.80;;;58.65;;
29574;SDS011;16507;51.046;6.406;2022-12-10T03:56:20;397.63;;;57.30;;
29574;SDS011;16507;51.046;6.406;2022-12-10T03:58:47;375.67;;;54.88;;
29574;SDS011;16507;51.046;6.406;2022-12-10T04:01:13;427.15;;;56.70;;
29574;SDS011;16507;51.046;6.406;2022-12-10T04:03:40;298.48;;;51.92;;
29574;SDS011;16507;51.046;6.406;2022-12-10T04:06:07;288.63;;;54.35;;
29574;SDS011;16507;51.046;6.406;2022-12-10T04:08:36;228.25;;;49.60;;
29574;SDS011;16507;51.046;6.406;2022-12-10T04:11:06;256.30;;;51.95;;
29574;SDS011;16507;51.046;6.406;2022-12-10T04:13:34;234.02;;;51.80;;
29574;SDS011;16507;51.046;6.406;2022-12-10T04:16:20;284.80;;;55.00;;
29574;SDS011;16507;51.046;6.406;2022-12-10T04:18:56;274.58;;;53.45;;
29574;SDS011;16507;51.046;6.406;2022-12-10T04:21:23;204.90;;;52.30;;
29574;SDS011;16507;51.046;6.406;2022-12-10T04:24:08;223.52;;;51.53;;
29574;SDS011;16507;51.046;6.406;2022-12-10T04:26:53;196.07;;;48.30;;
29574;SDS011;16507;51.046;6.406;2022-12-10T04:29:24;277.05;;;53.33;;
29574;SDS011;16507;51.046;6.406;2022-12-10T04:31:52;218.33;;;49.80;;
29574;SDS011;16507;51.046;6.406;2022-12-10T04:34:18;249.82;;;53.17;;
29574;SDS011;16507;51.046;6.406;2022-12-10T04:36:43;254.40;;;54.97;;
29574;SDS011;16507;51.046;6.406;2022-12-10T04:39:09;277.83;;;55.30;;
29574;SDS011;16507;51.046;6.406;2022-12-10T04:41:39;227.45;;;51.70;;
29574;SDS011;16507;51.046;6.406;2022-12-10T04:44:05;284.35;;;53.80;;
29574;SDS011;16507;51.046;6.406;2022-12-10T04:46:31;229.27;;;50.45;;
29574;SDS011;16507;51.046;6.406;2022-12-10T04:48:57;247.00;;;51.95;;
29574;SDS011;16507;51.046;6.406;2022-12-10T04:51:22;246.80;;;51.92;;
29574;SDS011;16507;51.046;6.406;2022-12-10T04:53:48;222.15;;;51.35;;
29574;SDS011;16507;51.046;6.406;2022-12-10T04:56:13;301.73;;;52.10;;
29574;SDS011;16507;51.046;6.406;2022-12-10T04:58:39;221.10;;;51.97;;
29574;SDS011;16507;51.046;6.406;2022-12-10T05:01:06;230.00;;;52.70;;
29574;SDS011;16507;51.046;6.406;2022-12-10T05:03:33;353.67;;;51.22;;
29574;SDS011;16507;51.046;6.406;2022-12-10T05:06:03;300.05;;;54.30;;
29574;SDS011;16507;51.046;6.406;2022-12-10T05:08:34;312.77;;;56.05;;
29574;SDS011;16507;51.046;6.406;2022-12-10T05:11:01;414.25;;;60.40;;
29574;SDS011;16507;51.046;6.406;2022-12-10T05:13:31;445.92;;;59.95;;
29574;SDS011;16507;51.046;6.406;2022-12-10T05:15:57;324.48;;;56.67;;
29574;SDS011;16507;51.046;6.406;2022-12-10T05:18:22;313.30;;;58.08;;
29574;SDS011;16507;51.046;6.406;2022-12-10T05:20:48;300.67;;;57.30;;
29574;SDS011;16507;51.046;6.406;2022-12-10T05:23:14;342.20;;;57.67;;
29574;SDS011;16507;51.046;6.406;2022-12-10T05:25:59;574.17;;;66.57;;
29574;SDS011;16507;51.046;6.406;2022-12-10T05:28:32;261.55;;;54.75;;
29574;SDS011;16507;51.046;6.406;2022-12-10T05:31:00;347.42;;;58.70;;
29574;SDS011;16507;51.046;6.406;2022-12-10T05:33:26;308.23;;;58.58;;
29574;SDS011;16507;51.046;6.406;2022-12-10T05:38:22;257.80;;;53.47;;
29574;SDS011;16507;51.046;6.406;2022-12-10T05:40:49;247.73;;;54.17;;
29574;SDS011;16507;51.046;6.406;2022-12-10T05:43:15;243.27;;;53.22;;
29574;SDS011;16507;51.046;6.406;2022-12-10T05:45:40;267.00;;;54.80;;
29574;SDS011;16507;51.046;6.406;2022-12-10T05:48:06;282.92;;;56.05;;
29574;SDS011;16507;51.046;6.406;2022-12-10T05:50:32;270.80;;;54.15;;
29574;SDS011;16507;51.046;6.406;2022-12-10T05:52:57;240.45;;;52.45;;
29574;SDS011;16507;51.046;6.406;2022-12-10T05:55:23;228.95;;;51.13;;
29574;SDS011;16507;51.046;6.406;2022-12-10T05:57:49;250.88;;;54.45;;
29574;SDS011;16507;51.046;6.406;2022-12-10T06:00:15;224.15;;;52.88;;
29574;SDS011;16507;51.046;6.406;2022-12-10T06:02:41;229.50;;;53.90;;
29574;SDS011;16507;51.046;6.406;2022-12-10T06:05:07;230.93;;;54.75;;
29574;SDS011;16507;51.046;6.406;2022-12-10T06:07:32;240.35;;;54.92;;
29574;SDS011;16507;51.046;6.406;2022-12-10T06:09:58;224.95;;;52.83;;
29574;SDS011;16507;51.046;6.406;2022-12-10T06:12:23;247.75;;;54.88;;
29574;SDS011;16507;51.046;6.406;2022-12-10T06:14:50;242.82;;;54.58;;
29574;SDS011;16507;51.046;6.406;2022-12-10T06:17:15;238.15;;;53.90;;
29574;SDS011;16507;51.046;6.406;2022-12-10T06:19:41;198.45;;;50.65;;
29574;SDS011;16507;51.046;6.406;2022-12-10T06:22:07;214.98;;;51.50;;
29574;SDS011;16507;51.046;6.406;2022-12-10T06:24:32;225.95;;;51.45;;
29574;SDS011;16507;51.046;6.406;2022-12-10T06:26:58;221.30;;;50.30;;
29574;SDS011;16507;51.046;6.406;2022-12-10T06:29:23;216.95;;;50.72;;
29574;SDS011;16507;51.046;6.406;2022-12-10T06:31:49;190.40;;;46.85;;
29574;SDS011;16507;51.046;6.406;2022-12-10T06:34:14;216.88;;;52.80;;
29574;SDS011;16507;51.046;6.406;2022-12-10T06:36:40;198.27;;;51.03;;
29574;SDS011;16507;51.046;6.406;2022-12-10T06:39:06;190.35;;;50.28;;
29574;SDS011;16507;51.046;6.406;2022-12-10T06:41:31;221.35;;;51.72;;
29574;SDS011;16507;51.046;6.406;2022-12-10T06:43:57;192.90;;;49.40;;
29574;SDS011;16507;51.046;6.406;2022-12-10T06:46:23;208.05;;;51.33;;
29574;SDS011;16507;51.046;6.406;2022-12-10T06:48:50;205.32;;;50.20;;
29574;SDS011;16507;51.046;6.406;2022-12-10T06:51:15;204.95;;;49.55;;
29574;SDS011;16507;51.046;6.406;2022-12-10T06:53:42;201.98;;;50.90;;
29574;SDS011;16507;51.046;6.406;2022-12-10T06:56:12;184.80;;;49.80;;
29574;SDS011;16507;51.046;6.406;2022-12-10T06:58:42;171.23;;;50.65;;
29574;SDS011;16507;51.046;6.406;2022-12-10T07:01:22;164.18;;;46.38;;
29574;SDS011;16507;51.046;6.406;2022-12-10T07:03:55;158.73;;;43.17;;
29574;SDS011;16507;51.046;6.406;2022-12-10T07:06:22;153.93;;;44.65;;
29574;SDS011;16507;51.046;6.406;2022-12-10T07:08:49;164.15;;;47.60;;
29574;SDS011;16507;51.046;6.406;2022-12-10T07:11:16;158.75;;;44.92;;
29574;SDS011;16507;51.046;6.406;2022-12-10T07:13:43;156.25;;;45.70;;
29574;SDS011;16507;51.046;6.406;2022-12-10T07:16:25;160.88;;;45.22;;
29574;SDS011;16507;51.046;6.406;2022-12-10T07:18:53;169.77;;;46.10;;
29574;SDS011;16507;51.046;6.406;2022-12-10T07:23:49;169.75;;;47.03;;
29574;SDS011;16507;51.046;6.406;2022-12-10T07:26:15;163.63;;;47.75;;
29574;SDS011;16507;51.046;6.406;2022-12-10T07:28:41;173.00;;;49.42;;
29574;SDS011;16507;51.046;6.406;2022-12-10T07:31:07;163.52;;;47.80;;
29574;SDS011;16507;51.046;6.406;2022-12-10T07:33:34;165.73;;;48.67;;
29574;SDS011;16507;51.046;6.406;2022-12-10T07:36:07;174.95;;;48.80;;
29574;SDS011;16507;51.046;6.406;2022-12-10T07:38:35;157.55;;;48.25;;
29574;SDS011;16507;51.046;6.406;2022-12-10T07:41:05;164.18;;;46.17;;
29574;SDS011;16507;51.046;6.406;2022-12-10T07:43:33;159.90;;;46.72;;
29574;SDS011;16507;51.046;6.406;2022-12-10T07:46:04;172.38;;;48.50;;
29574;SDS011;16507;51.046;6.406;2022-12-10T07:48:32;149.55;;;47.00;;
29574;SDS011;16507;51.046;6.406;2022-12-10T07:50:59;154.15;;;47.95;;
29574;SDS011;16507;51.046;6.406;2022-12-10T07:53:24;149.88;;;45.38;;
29574;SDS011;16507;51.046;6.406;2022-12-10T07:55:50;183.55;;;49.08;;
29574;SDS011;16507;51.046;6.406;2022-12-10T07:58:16;170.98;;;47.15;;
29574;SDS011;16507;51.046;6.406;2022-12-10T08:00:42;129.52;;;43.55;;
29574;SDS011;16507;51.046;6.406;2022-12-10T08:03:08;136.27;;;43.35;;
29574;SDS011;16507;51.046;6.406;2022-12-10T08:05:34;132.13;;;43.20;;
29574;SDS011;16507;51.046;6.406;2022-12-10T08:07:59;130.35;;;42.85;;
29574;SDS011;16507;51.046;6.406;2022-12-10T08:10:25;121.88;;;40.72;;
29574;SDS011;16507;51.046;6.406;2022-12-10T08:12:50;110.88;;;40.33;;
29574;SDS011;16507;51.046;6.406;2022-12-10T08:15:16;110.53;;;39.47;;
29574;SDS011;16507;51.046;6.406;2022-12-10T08:17:41;105.45;;;39.60;;
29574;SDS011;16507;51.046;6.406;2022-12-10T08:20:07;107.90;;;40.22;;
29574;SDS011;16507;51.046;6.406;2022-12-10T08:22:33;96.38;;;38.15;;
29574;SDS011;16507;51.046;6.406;2022-12-10T08:25:00;102.18;;;37.80;;
29574;SDS011;16507;51.046;6.406;2022-12-10T08:27:26;108.85;;;40.83;;
29574;SDS011;16507;51.046;6.406;2022-12-10T08:29:52;102.57;;;37.88;;
29574;SDS011;16507;51.046;6.406;2022-12-10T08:32:17;104.90;;;40.58;;
29574;SDS011;16507;51.046;6.406;2022-12-10T08:34:44;107.18;;;40.35;;
29574;SDS011;16507;51.046;6.406;2022-12-10T08:37:09;100.20;;;38.25;;
29574;SDS011;16507;51.046;6.406;2022-12-10T08:39:35;102.38;;;38.78;;
29574;SDS011;16507;51.046;6.406;2022-12-10T08:42:01;110.25;;;38.28;;
29574;SDS011;16507;51.046;6.406;2022-12-10T08:44:26;96.88;;;39.03;;
29574;SDS011;16507;51.046;6.406;2022-12-10T08:46:52;99.18;;;36.20;;
29574;SDS011;16507;51.046;6.406;2022-12-10T08:49:17;97.95;;;37.72;;
29574;SDS011;16507;51.046;6.406;2022-12-10T08:51:43;101.13;;;39.53;;
29574;SDS011;16507;51.046;6.406;2022-12-10T08:54:08;102.80;;;39.95;;
29574;SDS011;16507;51.046;6.406;2022-12-10T08:56:34;100.35;;;38.88;;
29574;SDS011;16507;51.046;6.406;2022-12-10T08:59:00;104.45;;;39.42;;
29574;SDS011;16507;51.046;6.406;2022-12-10T09:01:26;90.90;;;36.30;;
29574;SDS011;16507;51.046;6.406;2022-12-10T09:03:51;81.72;;;32.72;;
29574;SDS011;16507;51.046;6.406;2022-12-10T09:06:19;84.82;;;34.33;;
29574;SDS011;16507;51.046;6.406;2022-12-10T09:08:48;97.60;;;35.28;;
29574;SDS011;16507;51.046;6.406;2022-12-10T09:11:18;93.03;;;36.17;;
29574;SDS011;16507;51.046;6.406;2022-12-10T09:13:47;89.30;;;35.35;;
29574;SDS011;16507;51.046;6.406;2022-12-10T09:16:12;84.10;;;35.50;;
29574;SDS011;16507;51.046;6.406;2022-12-10T09:18:38;94.05;;;37.60;;
29574;SDS011;16507;51.046;6.406;2022-12-10T09:21:04;89.55;;;35.92;;
29574;SDS011;16507;51.046;6.406;2022-12-10T09:23:31;91.22;;;36.13;;
29574;SDS011;16507;51.046;6.406;2022-12-10T09:25:56;98.00;;;37.70;;
29574;SDS011;16507;51.046;6.406;2022-12-10T09:28:22;98.25;;;36.55;;
29574;SDS011;16507;51.046;6.406;2022-12-10T09:30:55;92.35;;;37.10;;
29574;SDS011;16507;51.046;6.406;2022-12-10T09:33:21;89.18;;;35.95;;
29574;SDS011;16507;51.046;6.406;2022-12-10T09:35:47;83.30;;;36.10;;
29574;SDS011;16507;51.046;6.406;2022-12-10T09:38:13;70.97;;;31.80;;
29574;SDS011;16507;51.046;6.406;2022-12-10T09:40:44;59.25;;;27.88;;
29574;SDS011;16507;51.046;6.406;2022-12-10T09:44:00;83.90;;;34.90;;
29574;SDS011;16507;51.046;6.406;2022-12-10T09:51:35;68.93;;;30.92;;
29574;SDS011;16507;51.046;6.406;2022-12-10T09:54:04;66.97;;;29.80;;
29574;SDS011;16507;51.046;6.406;2022-12-10T09:56:43;73.57;;;31.70;;
29574;SDS011;16507;51.046;6.406;2022-12-10T10:02:19;72.70;;;32.42;;
29574;SDS011;16507;51.046;6.406;2022-12-10T10:04:51;74.93;;;32.33;;
29574;SDS011;16507;51.046;6.406;2022-12-10T10:07:21;79.55;;;32.25;;
29574;SDS011;16507;51.046;6.406;2022-12-10T10:09:51;70.45;;;31.90;;
29574;SDS011;16507;51.046;6.406;2022-12-10T10:12:23;75.10;;;33.30;;
29574;SDS011;16507;51.046;6.406;2022-12-10T10:14:48;83.47;;;33.72;;
29574;SDS011;16507;51.046;6.406;2022-12-10T10:17:21;71.55;;;33.15;;
29574;SDS011;16507;51.046;6.406;2022-12-10T10:19:59;72.93;;;31.67;;
29574;SDS011;16507;51.046;6.406;2022-12-10T10:22:24;64.72;;;28.92;;
29574;SDS011;16507;51.046;6.406;2022-12-10T10:24:52;64.03;;;30.10;;
29574;SDS011;16507;51.046;6.406;2022-12-10T10:27:25;60.72;;;28.67;;
29574;SDS011;16507;51.046;6.406;2022-12-10T10:29:54;70.38;;;30.08;;
29574;SDS011;16507;51.046;6.406;2022-12-10T10:32:26;61.70;;;28.85;;
29574;SDS011;16507;51.046;6.406;2022-12-10T10:35:19;57.65;;;28.13;;
29574;SDS011;16507;51.046;6.406;2022-12-10T10:37:48;58.60;;;27.95;;
29574;SDS011;16507;51.046;6.406;2022-12-10T10:42:58;64.35;;;30.25;;
29574;SDS011;16507;51.046;6.406;2022-12-10T10:48:27;66.78;;;30.65;;
29574;SDS011;16507;51.046;6.406;2022-12-10T10:50:54;80.78;;;31.70;;
29574;SDS011;16507;51.046;6.406;2022-12-10T10:56:23;63.13;;;28.30;;
29574;SDS011;16507;51.046;6.406;2022-12-10T10:59:01;71.90;;;30.45;;
29574;SDS011;16507;51.046;6.406;2022-12-10T11:04:30;69.60;;;29.80;;
29574;SDS011;16507;51.046;6.406;2022-12-10T11:07:03;70.50;;;30.85;;
29574;SDS011;16507;51.046;6.406;2022-12-10T11:09:34;76.03;;;32.40;;
29574;SDS011;16507;51.046;6.406;2022-12-10T11:12:06;75.25;;;32.58;;
29574;SDS011;16507;51.046;6.406;2022-12-10T11:14:45;73.25;;;31.75;;
29574;SDS011;16507;51.046;6.406;2022-12-10T11:17:17;75.32;;;32.83;;
29574;SDS011;16507;51.046;6.406;2022-12-10T11:22:35;68.00;;;28.38;;
29574;SDS011;16507;51.046;6.406;2022-12-10T11:25:00;66.45;;;29.17;;
29574;SDS011;16507;51.046;6.406;2022-12-10T11:35:21;78.10;;;32.63;;
29574;SDS011;16507;51.046;6.406;2022-12-10T11:38:34;82.90;;;32.95;;
29574;SDS011;16507;51.046;6.406;2022-12-10T11:41:31;82.82;;;33.58;;
29574;SDS011;16507;51.046;6.406;2022-12-10T11:44:33;79.38;;;30.38;;
29574;SDS011;16507;51.046;6.406;2022-12-10T11:47:12;91.18;;;38.40;;
29574;SDS011;16507;51.046;6.406;2022-12-10T12:09:23;96.00;;;35.42;;
29574;SDS011;16507;51.046;6.406;2022-12-10T12:14:27;94.63;;;36.22;;
29574;SDS011;16507;51.046;6.406;2022-12-10T12:17:13;95.25;;;35.42;;
29574;SDS011;16507;51.046;6.406;2022-12-10T12:19:51;112.50;;;39.95;;
29574;SDS011;16507;51.046;6.406;2022-12-10T12:22:27;101.43;;;35.75;;
29574;SDS011;16507;51.046;6.406;2022-12-10T12:24:59;106.35;;;37.83;;
29574;SDS011;16507;51.046;6.406;2022-12-10T12:27:57;96.57;;;35.92;;
29574;SDS011;16507;51.046;6.406;2022-12-10T12:30:29;101.15;;;37.50;;
29574;SDS011;16507;51.046;6.406;2022-12-10T12:33:02;99.45;;;37.75;;
29574;SDS011;16507;51.046;6.406;2022-12-10T12:40:59;104.13;;;38.50;;
29574;SDS011;16507;51.046;6.406;2022-12-10T12:43:39;100.43;;;37.20;;
29574;SDS011;16507;51.046;6.406;2022-12-10T12:46:13;95.82;;;36.28;;
29574;SDS011;16507;51.046;6.406;2022-12-10T12:51:50;95.38;;;33.60;;
29574;SDS011;16507;51.046;6.406;2022-12-10T12:54:25;102.30;;;35.17;;
29574;SDS011;16507;51.046;6.406;2022-12-10T12:59:39;97.28;;;37.30;;
29574;SDS011;16507;51.046;6.406;2022-12-10T13:02:42;105.70;;;38.65;;
29574;SDS011;16507;51.046;6.406;2022-12-10T13:05:17;107.22;;;37.95;;
29574;SDS011;16507;51.046;6.406;2022-12-10T13:08:15;113.38;;;36.30;;
29574;SDS011;16507;51.046;6.406;2022-12-10T13:11:00;107.03;;;36.90;;
29574;SDS011;16507;51.046;6.406;2022-12-10T13:13:30;98.40;;;35.90;;
29574;SDS011;16507;51.046;6.406;2022-12-10T13:22:06;94.88;;;32.47;;
29574;SDS011;16507;51.046;6.406;2022-12-10T13:32:51;83.63;;;31.75;;
29574;SDS011;16507;51.046;6.406;2022-12-10T13:35:29;77.93;;;29.65;;
29574;SDS011;16507;51.046;6.406;2022-12-10T13:37:58;55.50;;;22.00;;
29574;SDS011;16507;51.046;6.406;2022-12-10T13:43:29;93.15;;;33.45;;
29574;SDS011;16507;51.046;6.406;2022-12-10T13:46:25;86.43;;;31.90;;
29574;SDS011;16507;51.046;6.406;2022-12-10T13:48:57;94.00;;;34.95;;
29574;SDS011;16507;51.046;6.406;2022-12-10T14:07:18;91.18;;;33.15;;
29574;SDS011;16507;51.046;6.406;2022-12-10T14:09:46;87.18;;;32.53;;
29574;SDS011;16507;51.046;6.406;2022-12-10T14:12:37;98.32;;;34.42;;
29574;SDS011;16507;51.046;6.406;2022-12-10T14:15:05;95.80;;;33.63;;
29574;SDS011;16507;51.046;6.406;2022-12-10T14:17:48;105.38;;;35.08;;
29574;SDS011;16507;51.046;6.406;2022-12-10T14:20:26;107.60;;;36.38;;
29574;SDS011;16507;51.046;6.406;2022-12-10T14:22:55;97.45;;;36.55;;
29574;SDS011;16507;51.046;6.406;2022-12-10T14:25:42;116.20;;;37.22;;
29574;SDS011;16507;51.046;6.406;2022-12-10T14:28:13;90.18;;;32.35;;
29574;SDS011;16507;51.046;6.406;2022-12-10T14:30:44;76.65;;;29.52;;
29574;SDS011;16507;51.046;6.406;2022-12-10T14:35:40;86.28;;;31.52;;
29574;SDS011;16507;51.046;6.406;2022-12-10T14:38:12;87.80;;;33.17;;
29574;SDS011;16507;51.046;6.406;2022-12-10T14:40:54;90.90;;;33.70;;
29574;SDS011;16507;51.046;6.406;2022-12-10T14:43:21;94.97;;;33.95;;
29574;SDS011;16507;51.046;6.406;2022-12-10T14:45:55;80.75;;;31.90;;
29574;SDS011;16507;51.046;6.406;2022-12-10T14:48:24;83.30;;;30.52;;
29574;SDS011;16507;51.046;6.406;2022-12-10T14:50:50;77.68;;;30.05;;
29574;SDS011;16507;51.046;6.406;2022-12-10T14:55:49;91.25;;;31.58;;
29574;SDS011;16507;51.046;6.406;2022-12-10T14:58:25;90.13;;;31.17;;
29574;SDS011;16507;51.046;6.406;2022-12-10T15:00:56;77.65;;;31.23;;
29574;SDS011;16507;51.046;6.406;2022-12-10T15:03:26;103.03;;;33.08;;
29574;SDS011;16507;51.046;6.406;2022-12-10T15:05:54;63.88;;;24.30;;
29574;SDS011;16507;51.046;6.406;2022-12-10T15:08:25;93.15;;;33.42;;
29574;SDS011;16507;51.046;6.406;2022-12-10T15:10:52;98.38;;;33.33;;
29574;SDS011;16507;51.046;6.406;2022-12-10T15:13:23;87.10;;;33.05;;
29574;SDS011;16507;51.046;6.406;2022-12-10T15:16:02;98.85;;;34.50;;
29574;SDS011;16507;51.046;6.406;2022-12-10T15:18:30;89.82;;;31.40;;
29574;SDS011;16507;51.046;6.406;2022-12-10T15:21:09;93.95;;;32.63;;
29574;SDS011;16507;51.046;6.406;2022-12-10T15:28:50;108.93;;;34.83;;
29574;SDS011;16507;51.046;6.406;2022-12-10T15:34:01;109.38;;;34.35;;
29574;SDS011;16507;51.046;6.406;2022-12-10T15:41:43;98.75;;;32.53;;
29574;SDS011;16507;51.046;6.406;2022-12-10T15:49:47;93.88;;;33.05;;
29574;SDS011;16507;51.046;6.406;2022-12-10T15:52:14;95.40;;;33.33;;
29574;SDS011;16507;51.046;6.406;2022-12-10T15:54:43;100.25;;;33.95;;
29574;SDS011;16507;51.046;6.406;2022-12-10T15:59:46;91.05;;;31.98;;
29574;SDS011;16507;51.046;6.406;2022-12-10T16:05:19;96.55;;;31.40;;
29574;SDS011;16507;51.046;6.406;2022-12-10T16:07:46;100.00;;;32.83;;
29574;SDS011;16507;51.046;6.406;2022-12-10T16:10:14;91.72;;;32.50;;
29574;SDS011;16507;51.046;6.406;2022-12-10T16:12:41;95.63;;;31.67;;
29574;SDS011;16507;51.046;6.406;2022-12-10T16:15:17;89.85;;;31.33;;
29574;SDS011;16507;51.046;6.406;2022-12-10T16:17:45;95.60;;;31.25;;
29574;SDS011;16507;51.046;6.406;2022-12-10T16:25:19;90.35;;;32.00;;
29574;SDS011;16507;51.046;6.406;2022-12-10T16:27:46;97.10;;;33.60;;
29574;SDS011;16507;51.046;6.406;2022-12-10T16:35:20;104.32;;;33.28;;
29574;SDS011;16507;51.046;6.406;2022-12-10T16:37:47;98.88;;;34.10;;
29574;SDS011;16507;51.046;6.406;2022-12-10T16:40:16;98.78;;;34.42;;
29574;SDS011;16507;51.046;6.406;2022-12-10T16:42:42;105.43;;;33.00;;
29574;SDS011;16507;51.046;6.406;2022-12-10T16:45:11;103.25;;;31.70;;
29574;SDS011;16507;51.046;6.406;2022-12-10T16:47:41;88.55;;;29.60;;
29574;SDS011;16507;51.046;6.406;2022-12-10T16:50:07;88.97;;;29.73;;
29574;SDS011;16507;51.046;6.406;2022-12-10T16:52:33;92.50;;;31.52;;
29574;SDS011;16507;51.046;6.406;2022-12-10T16:54:58;102.75;;;33.88;;
29574;SDS011;16507;51.046;6.406;2022-12-10T16:57:24;84.63;;;29.98;;
29574;SDS011;16507;51.046;6.406;2022-12-10T16:59:50;90.85;;;30.52;;
29574;SDS011;16507;51.046;6.406;2022-12-10T17:02:15;103.20;;;33.60;;
29574;SDS011;16507;51.046;6.406;2022-12-10T17:04:42;99.07;;;33.10;;
29574;SDS011;16507;51.046;6.406;2022-12-10T17:07:09;106.32;;;34.05;;
29574;SDS011;16507;51.046;6.406;2022-12-10T17:09:35;103.68;;;33.20;;
29574;SDS011;16507;51.046;6.406;2022-12-10T17:12:01;111.50;;;35.25;;
29574;SDS011;16507;51.046;6.406;2022-12-10T17:14:28;104.20;;;34.05;;